createdAt,value
2023-03-28T00:13:36.974Z,5.80
2023-03-28T00:23:52.512Z,5.80
2023-03-28T00:27:17.780Z,5.80
2023-03-28T00:30:42.784Z,5.70
2023-03-28T00:34:07.501Z,5.60
2023-03-28T00:37:31.797Z,5.60
2023-03-28T00:40:58.659Z,5.60
2023-03-28T00:44:45.068Z,5.50
2023-03-28T00:48:15.499Z,5.50
2023-03-28T00:51:43.763Z,5.50
2023-03-28T00:55:13.618Z,5.40
2023-03-28T00:58:44.841Z,5.50
2023-03-28T01:05:36.697Z,5.50
2023-03-28T01:09:05.418Z,5.50
2023-03-28T01:16:00.194Z,5.50
2023-03-28T01:19:45.658Z,5.50
2023-03-28T01:23:47.271Z,5.50
2023-03-28T01:27:20.594Z,5.40
2023-03-28T01:31:30.420Z,5.30
2023-03-28T01:36:34.052Z,5.30
2023-03-28T01:40:36.633Z,5.30
2023-03-28T01:44:11.385Z,5.20
2023-03-28T01:47:41.470Z,5.20
2023-03-28T01:51:18.351Z,5.20
2023-03-28T01:54:52.264Z,5.10
2023-03-28T01:58:29.297Z,5.10
2023-03-28T02:02:08.405Z,5.10
2023-03-28T02:05:35.883Z,5.10
2023-03-28T02:09:05.609Z,5.00
2023-03-28T02:12:53.489Z,5.00
2023-03-28T02:16:54.251Z,5.00
2023-03-28T02:20:46.719Z,4.90
2023-03-28T02:28:11.868Z,4.90
2023-03-28T02:32:05.071Z,4.80
2023-03-28T02:35:48.088Z,4.80
2023-03-28T02:39:43.022Z,4.80
2023-03-28T02:43:44.881Z,4.80
2023-03-28T02:47:18.015Z,4.80
2023-03-28T02:50:53.535Z,4.80
2023-03-28T02:54:32.149Z,4.80
2023-03-28T02:58:27.411Z,4.70
2023-03-28T03:05:17.633Z,4.80
2023-03-28T03:08:41.399Z,4.70
2023-03-28T03:15:30.858Z,4.70
2023-03-28T03:22:21.361Z,4.70
2023-03-28T03:25:50.474Z,4.70
2023-03-28T03:36:30.384Z,4.70
2023-03-28T03:39:56.993Z,4.70
2023-03-28T03:43:27.751Z,4.70
2023-03-28T03:53:40.068Z,4.70
2023-03-28T03:57:09.455Z,4.70
2023-03-28T04:07:32.908Z,4.70
2023-03-28T04:14:21.621Z,4.80
2023-03-28T04:28:12.931Z,4.60
2023-03-28T04:31:55.923Z,4.60
2023-03-28T04:49:40.582Z,4.50
2023-03-28T04:56:28.822Z,4.50
2023-03-28T05:07:07.808Z,4.40
2023-03-28T05:10:31.609Z,4.40
2023-03-28T05:24:22.422Z,4.40
2023-03-28T05:31:10.015Z,4.50
2023-03-28T05:37:58.846Z,4.50
2023-03-28T05:41:24.020Z,4.60
2023-03-28T05:44:47.537Z,4.60
2023-03-28T05:51:53.513Z,4.60
2023-03-28T05:58:42.812Z,4.70
2023-03-28T06:15:49.344Z,5.00
2023-03-28T06:33:03.672Z,5.40
2023-03-28T06:36:27.318Z,5.40
2023-03-28T06:43:16.562Z,5.20
2023-03-28T06:46:43.899Z,5.70
2023-03-28T06:50:12.129Z,6.30
2023-03-28T06:53:46.357Z,6.90
2023-03-28T06:57:10.968Z,8.00
2023-03-28T07:00:35.822Z,9.20
2023-03-28T07:04:21.982Z,10.40
2023-03-28T07:07:48.123Z,11.60
2023-03-28T07:11:11.776Z,12.50
2023-03-28T07:14:37.660Z,13.40
2023-03-28T07:18:01.547Z,14.10
2023-03-28T07:21:25.636Z,14.60
2023-03-28T07:24:53.851Z,15.20
2023-03-28T07:28:18.620Z,15.60
2023-03-28T07:31:42.629Z,16.00
2023-03-28T07:35:09.460Z,16.40
2023-03-28T07:38:41.975Z,17.00
2023-03-28T07:42:11.827Z,17.70
2023-03-28T07:45:36.090Z,18.00
2023-03-28T07:49:00.868Z,18.20
2023-03-28T07:52:24.673Z,18.30
2023-03-28T07:55:54.844Z,18.60
2023-03-28T07:59:23.431Z,18.70
2023-03-28T08:06:31.015Z,18.20
2023-03-28T08:09:58.438Z,17.60
2023-03-28T08:13:24.426Z,16.80
2023-03-28T08:16:49.543Z,16.00
2023-03-28T08:20:13.944Z,15.40
2023-03-28T08:23:44.894Z,14.90
2023-03-28T08:27:28.614Z,14.90
2023-03-28T08:30:56.164Z,15.40
2023-03-28T08:34:21.045Z,15.90
2023-03-28T08:37:44.853Z,16.50
2023-03-28T08:41:35.037Z,17.10
2023-03-28T08:45:22.977Z,17.60
2023-03-28T08:48:49.689Z,21.10
2023-03-28T08:52:18.543Z,18.90
2023-03-28T08:55:44.082Z,19.60
2023-03-28T08:59:12.726Z,19.90
2023-03-28T09:02:36.324Z,19.90
2023-03-28T09:06:08.771Z,20.00
2023-03-28T09:09:53.298Z,20.10
2023-03-28T09:13:54.378Z,19.90
2023-03-28T09:17:30.237Z,19.40
2023-03-28T09:21:03.891Z,18.20
2023-03-28T09:25:14.558Z,18.10
2023-03-28T09:28:49.823Z,16.70
2023-03-28T09:32:26.063Z,16.60
2023-03-28T09:35:57.044Z,16.00
2023-03-28T09:39:34.883Z,15.40
2023-03-28T09:43:13.017Z,15.30
2023-03-28T09:46:52.338Z,15.00
2023-03-28T09:50:36.288Z,14.70
2023-03-28T09:54:07.995Z,14.50
2023-03-28T09:58:06.659Z,14.20
2023-03-28T10:01:46.704Z,14.00
2023-03-28T10:05:35.725Z,13.70
2023-03-28T10:09:22.980Z,13.40
2023-03-28T10:13:00.013Z,13.30
2023-03-28T10:16:31.492Z,13.50
2023-03-28T10:20:25.378Z,14.10
2023-03-28T10:24:00.941Z,15.00
2023-03-28T10:27:29.782Z,16.00
2023-03-28T10:30:56.019Z,16.90
2023-03-28T10:34:28.971Z,17.80
2023-03-28T10:38:22.340Z,18.60
2023-03-28T10:42:04.578Z,19.30
2023-03-28T10:45:55.206Z,19.60
2023-03-28T10:49:28.930Z,19.70
2023-03-28T10:53:22.800Z,19.20
2023-03-28T10:56:55.969Z,18.60
2023-03-28T11:00:33.138Z,18.10
2023-03-28T11:04:17.528Z,18.20
2023-03-28T11:07:55.628Z,17.30
2023-03-28T11:12:03.768Z,17.60
2023-03-28T11:15:35.262Z,18.00
2023-03-28T11:19:29.188Z,18.30
2023-03-28T11:23:34.503Z,18.30
2023-03-28T11:27:26.817Z,18.30
2023-03-28T11:31:01.137Z,18.50
2023-03-28T11:35:05.574Z,18.80
2023-03-28T11:38:37.550Z,19.10
2023-03-28T11:42:09.861Z,19.40
2023-03-28T11:45:52.150Z,19.60
2023-03-28T11:49:24.998Z,20.00
2023-03-28T11:52:55.866Z,20.10
2023-03-28T11:56:37.964Z,20.30
2023-03-28T12:00:33.275Z,20.30
2023-03-28T12:04:13.127Z,20.00
2023-03-28T12:07:44.361Z,19.90
2023-03-28T12:11:30.833Z,19.70
2023-03-28T12:15:06.341Z,19.70
2023-03-28T12:18:47.200Z,19.60
2023-03-28T12:22:35.967Z,19.30
2023-03-28T12:26:18.140Z,18.40
2023-03-28T12:29:50.213Z,18.00
2023-03-28T12:33:27.738Z,18.00
2023-03-28T12:37:14.253Z,17.80
2023-03-28T12:40:56.179Z,17.70
2023-03-28T12:44:27.504Z,17.80
2023-03-28T12:48:02.240Z,17.70
2023-03-28T12:51:35.352Z,17.60
2023-03-28T12:55:02.196Z,17.40
2023-03-28T12:58:37.269Z,17.30
2023-03-28T13:02:29.920Z,17.10
2023-03-28T13:06:06.803Z,17.00
2023-03-28T13:09:46.691Z,16.80
2023-03-28T13:13:28.571Z,16.70
2023-03-28T13:16:58.671Z,16.50
2023-03-28T13:20:28.551Z,16.40
2023-03-28T13:23:53.414Z,16.40
2023-03-28T13:27:32.578Z,16.30
2023-03-28T13:31:08.874Z,16.30
2023-03-28T13:34:34.344Z,16.20
2023-03-28T13:38:22.513Z,16.40
2023-03-28T13:42:05.382Z,16.10
2023-03-28T13:45:29.253Z,16.00
2023-03-28T13:49:02.388Z,15.90
2023-03-28T13:52:26.539Z,15.80
2023-03-28T13:56:18.654Z,15.80
2023-03-28T13:59:55.279Z,15.70
2023-03-28T14:03:18.849Z,15.70
2023-03-28T14:06:42.920Z,15.70
2023-03-28T14:10:29.308Z,15.60
2023-03-28T14:14:06.048Z,15.50
2023-03-28T14:17:36.404Z,15.40
2023-03-28T14:21:01.253Z,15.30
2023-03-28T14:24:27.772Z,15.30
2023-03-28T14:27:54.569Z,15.20
2023-03-28T14:31:32.749Z,15.10
2023-03-28T14:34:57.760Z,15.00
2023-03-28T14:38:32.066Z,15.00
2023-03-28T14:41:58.366Z,15.00
2023-03-28T14:45:22.796Z,14.90
2023-03-28T14:48:46.352Z,14.80
2023-03-28T14:52:16.285Z,14.60
2023-03-28T14:55:42.015Z,14.50
2023-03-28T14:59:06.428Z,14.40
2023-03-28T15:02:36.328Z,14.30
2023-03-28T15:06:01.476Z,14.30
2023-03-28T15:09:32.740Z,14.20
2023-03-28T15:13:09.956Z,14.20
2023-03-28T15:16:39.410Z,14.10
2023-03-28T15:20:04.790Z,13.80
2023-03-28T15:23:32.020Z,14.00
2023-03-28T15:27:01.838Z,14.00
2023-03-28T15:30:26.808Z,13.90
2023-03-28T15:33:52.732Z,13.90
2023-03-28T15:37:21.247Z,13.80
2023-03-28T15:40:47.408Z,13.80
2023-03-28T15:44:28.189Z,13.70
2023-03-28T15:47:55.409Z,13.70
2023-03-28T15:51:20.341Z,13.60
2023-03-28T15:54:50.352Z,13.60
2023-03-28T15:58:16.984Z,13.50
2023-03-28T16:01:41.945Z,13.50
2023-03-28T16:05:08.012Z,13.50
2023-03-28T16:08:34.990Z,13.40
2023-03-28T16:12:03.299Z,13.30
2023-03-28T16:15:38.623Z,13.20
2023-03-28T16:19:35.033Z,13.10
2023-03-28T16:26:23.083Z,13.10
2023-03-28T16:29:46.989Z,13.00
2023-03-28T16:33:10.646Z,13.00
2023-03-28T16:36:35.882Z,12.90
2023-03-28T16:40:00.550Z,12.90
2023-03-28T16:50:14.949Z,12.70
2023-03-28T16:53:41.808Z,12.70
2023-03-28T17:00:29.457Z,12.50
2023-03-28T17:07:17.456Z,12.40
2023-03-28T17:10:44.240Z,12.30
2023-03-28T17:21:01.899Z,12.20
2023-03-28T17:24:25.641Z,12.10
2023-03-28T17:27:50.535Z,12.00
2023-03-28T17:31:16.717Z,12.00
2023-03-28T17:34:40.800Z,11.90
2023-03-28T17:38:04.378Z,11.80
2023-03-28T17:41:28.608Z,11.70
2023-03-28T17:44:54.604Z,11.70
2023-03-28T17:48:18.151Z,11.60
2023-03-28T17:51:41.852Z,11.60
2023-03-28T17:55:07.258Z,11.50
2023-03-28T18:01:57.214Z,11.40
2023-03-28T18:05:22.273Z,11.40
2023-03-28T18:12:14.047Z,11.20
2023-03-28T18:15:40.782Z,11.30
2023-03-28T18:19:06.775Z,11.30
2023-03-28T18:22:30.425Z,11.40
2023-03-28T18:29:18.341Z,11.30
2023-03-28T18:36:08.910Z,11.30
2023-03-28T18:39:32.541Z,11.30
2023-03-28T18:42:56.041Z,11.20
2023-03-28T18:49:44.438Z,11.20
2023-03-28T18:53:09.214Z,11.20
2023-03-28T18:56:32.931Z,11.20
2023-03-28T19:06:44.681Z,11.10
2023-03-28T19:10:12.900Z,11.00
2023-03-28T19:13:36.565Z,11.00
2023-03-28T19:17:00.017Z,11.00
2023-03-28T19:23:49.546Z,11.10
2023-03-28T19:27:14.324Z,11.00
2023-03-28T19:30:39.979Z,11.10
2023-03-28T19:44:22.750Z,11.10
2023-03-28T19:47:46.244Z,11.10
2023-03-28T19:51:09.946Z,11.00
2023-03-28T19:54:33.428Z,11.10
2023-03-28T19:57:58.200Z,11.10
2023-03-28T20:01:23.149Z,11.10
2023-03-28T20:04:46.796Z,11.10
2023-03-28T20:08:11.186Z,11.10
2023-03-28T20:11:34.811Z,11.10
2023-03-28T20:14:58.518Z,11.10
2023-03-28T20:18:24.220Z,11.60
2023-03-28T20:25:12.550Z,11.10
2023-03-28T20:28:36.169Z,11.10
2023-03-28T20:32:01.040Z,11.00
2023-03-28T20:35:27.518Z,11.10
2023-03-28T20:38:51.447Z,11.00
2023-03-28T20:42:14.964Z,11.00
2023-03-28T20:45:39.216Z,11.00
2023-03-28T20:49:06.360Z,11.00
2023-03-28T20:52:35.976Z,11.10
2023-03-28T20:56:04.746Z,11.10
2023-03-28T21:02:53.876Z,11.20
2023-03-28T21:06:21.439Z,11.20
2023-03-28T21:09:46.679Z,11.30
2023-03-28T21:13:10.312Z,11.20
2023-03-28T21:16:37.290Z,11.30
2023-03-28T21:26:54.010Z,11.30
2023-03-28T21:30:18.184Z,11.30
2023-03-28T21:33:42.724Z,11.30
2023-03-28T21:43:56.753Z,11.30
2023-03-28T21:50:53.561Z,11.30
2023-03-28T21:54:17.421Z,11.30
2023-03-28T21:57:40.941Z,11.30
2023-03-28T22:01:06.844Z,11.40
2023-03-28T22:04:33.429Z,11.30
2023-03-28T22:11:27.389Z,11.30
2023-03-28T22:18:16.380Z,11.30
2023-03-28T22:21:39.953Z,11.30
2023-03-28T22:25:04.286Z,11.30
2023-03-28T22:31:51.791Z,11.30
2023-03-28T22:35:16.785Z,11.30
2023-03-28T22:38:40.318Z,11.30
2023-03-28T22:52:19.383Z,11.20
2023-03-28T22:55:44.891Z,11.20
2023-03-28T23:02:32.273Z,14.30
2023-03-28T23:09:22.344Z,10.70
2023-03-28T23:12:46.071Z,10.60
2023-03-28T23:26:23.259Z,10.30
2023-03-28T23:36:34.496Z,10.10
2023-03-28T23:43:24.509Z,10.00
2023-03-28T23:50:14.270Z,9.90
